Time;durP1;ratioP1;P1;durP2;ratioP2;P2;SDS_P1;SDS_P2;PMS_P1;PMS_P2;Temp;Humidity;BMP_temperature;BMP_pressure;BME280_temperature;BME280_humidity;BME280_pressure;Samples;Min_cycle;Max_cycle;Signal;HPM_P1;HPM_P2
2021/08/29 00:00:36;;;;;;;11.02;4.68;;;;;;;;;;5095708;28;20055;-83
2021/08/29 00:03:02;;;;;;;8.82;4.30;;;;;;;;;;5077121;28;20040;-90
2021/08/29 00:05:28;;;;;;;12.60;4.40;;;;;;;;;;5111518;28;20140;-84
2021/08/29 00:07:54;;;;;;;9.35;4.32;;;;;;;;;;5095168;28;20410;-83
2021/08/29 00:10:21;;;;;;;10.15;4.43;;;;;;;;;;5094742;28;20047;-84
2021/08/29 00:12:47;;;;;;;9.02;4.22;;;;;;;;;;5094039;28;20075;-84
2021/08/29 00:15:13;;;;;;;7.18;4.15;;;;;;;;;;5093866;28;20043;-83
2021/08/29 00:17:39;;;;;;;9.18;4.45;;;;;;;;;;5077345;28;20131;-83
2021/08/29 00:20:06;;;;;;;8.90;3.85;;;;;;;;;;5093622;28;20063;-85
2021/08/29 00:22:32;;;;;;;8.02;3.80;;;;;;;;;;5101330;28;20510;-84
2021/08/29 00:24:58;;;;;;;8.18;4.03;;;;;;;;;;5094052;28;20112;-84
2021/08/29 00:27:24;;;;;;;9.90;4.50;;;;;;;;;;5076648;28;20154;-84
2021/08/29 00:29:50;;;;;;;8.70;3.88;;;;;;;;;;5094029;28;20032;-83
2021/08/29 00:32:16;;;;;;;7.55;4.00;;;;;;;;;;5076776;28;20043;-84
2021/08/29 00:34:42;;;;;;;9.85;4.20;;;;;;;;;;5077672;28;20130;-83
2021/08/29 00:37:08;;;;;;;9.32;4.22;;;;;;;;;;5093480;28;20040;-84
2021/08/29 00:39:35;;;;;;;8.88;3.92;;;;;;;;;;5076784;28;20051;-83
2021/08/29 00:42:02;;;;;;;8.38;3.65;;;;;;;;;;5093244;28;20130;-88
2021/08/29 00:44:28;;;;;;;7.90;3.95;;;;;;;;;;5093201;28;20046;-84
2021/08/29 00:46:54;;;;;;;7.78;3.72;;;;;;;;;;5077411;28;20075;-83
2021/08/29 00:49:20;;;;;;;8.75;3.80;;;;;;;;;;5092915;28;20059;-83
2021/08/29 00:51:47;;;;;;;11.27;3.90;;;;;;;;;;5076948;28;20060;-85
2021/08/29 00:54:13;;;;;;;11.10;4.00;;;;;;;;;;5093701;28;20040;-86
2021/08/29 00:56:39;;;;;;;8.98;4.07;;;;;;;;;;5077094;28;20062;-84
2021/08/29 00:59:05;;;;;;;11.18;3.70;;;;;;;;;;5076344;28;20035;-91
2021/08/29 01:01:41;;;;;;;7.55;3.42;;;;;;;;;;5077134;28;20051;-83
2021/08/29 01:04:11;;;;;;;8.02;3.40;;;;;;;;;;5089189;28;20040;-83
2021/08/29 01:06:37;;;;;;;10.00;3.22;;;;;;;;;;5093221;28;20050;-83
2021/08/29 01:09:05;;;;;;;11.80;3.83;;;;;;;;;;5093362;28;20058;-84
2021/08/29 01:11:32;;;;;;;10.32;3.30;;;;;;;;;;5093829;28;20036;-82
2021/08/29 01:14:01;;;;;;;12.68;3.42;;;;;;;;;;5093516;28;20510;-82
2021/08/29 01:16:30;;;;;;;9.40;3.20;;;;;;;;;;5076318;28;20039;-84
2021/08/29 01:18:57;;;;;;;7.80;3.35;;;;;;;;;;5070097;28;20032;-85
2021/08/29 01:21:28;;;;;;;7.45;2.92;;;;;;;;;;5076543;28;20574;-85
2021/08/29 01:23:59;;;;;;;8.48;3.42;;;;;;;;;;5093703;28;20044;-83
2021/08/29 01:26:44;;;;;;;10.85;3.83;;;;;;;;;;5091066;28;20051;-83
2021/08/29 01:29:11;;;;;;;7.87;3.07;;;;;;;;;;5097863;28;20094;-85
2021/08/29 01:31:38;;;;;;;8.68;3.65;;;;;;;;;;5116945;28;20139;-84
2021/08/29 01:34:08;;;;;;;10.75;3.72;;;;;;;;;;5106275;28;20040;-90
2021/08/29 01:36:35;;;;;;;7.95;3.58;;;;;;;;;;5093604;28;20040;-86
2021/08/29 01:39:03;;;;;;;13.27;3.58;;;;;;;;;;5076980;28;20495;-85
2021/08/29 01:41:31;;;;;;;10.52;3.60;;;;;;;;;;5076801;28;20052;-83
2021/08/29 01:43:57;;;;;;;8.98;2.78;;;;;;;;;;5076608;28;20047;-83
2021/08/29 01:46:24;;;;;;;9.63;3.15;;;;;;;;;;5075928;28;20055;-85
2021/08/29 01:48:50;;;;;;;9.50;3.75;;;;;;;;;;5080736;28;20105;-85
2021/08/29 01:51:17;;;;;;;11.50;3.40;;;;;;;;;;5076527;28;20511;-84
2021/08/29 01:53:43;;;;;;;9.05;3.20;;;;;;;;;;5111498;28;20051;-83
2021/08/29 01:56:09;;;;;;;10.07;3.47;;;;;;;;;;5092806;28;20039;-83
2021/08/29 01:58:35;;;;;;;9.93;3.10;;;;;;;;;;5093688;28;20047;-84
2021/08/29 02:01:03;;;;;;;12.82;4.00;;;;;;;;;;5091509;28;20494;-84
2021/08/29 02:03:30;;;;;;;10.05;3.30;;;;;;;;;;5093102;28;20036;-83
2021/08/29 02:06:05;;;;;;;8.20;3.08;;;;;;;;;;5076239;28;20059;-86
2021/08/29 02:08:32;;;;;;;6.30;2.83;;;;;;;;;;5076782;28;20036;-83
2021/08/29 02:10:59;;;;;;;12.43;3.47;;;;;;;;;;5071573;28;20051;-83
2021/08/29 02:13:26;;;;;;;7.93;3.25;;;;;;;;;;5079442;28;20050;-83
2021/08/29 02:16:13;;;;;;;10.52;3.38;;;;;;;;;;5114840;28;20051;-82
2021/08/29 02:18:42;;;;;;;9.52;3.50;;;;;;;;;;5096630;28;20071;-85
2021/08/29 02:21:09;;;;;;;9.00;3.40;;;;;;;;;;5096138;28;20054;-84
2021/08/29 02:23:35;;;;;;;11.13;3.15;;;;;;;;;;5096791;28;20059;-85
2021/08/29 02:26:02;;;;;;;7.38;3.42;;;;;;;;;;5114342;28;20051;-83
2021/08/29 02:28:28;;;;;;;7.80;2.97;;;;;;;;;;5078814;28;20039;-83
2021/08/29 02:30:55;;;;;;;8.30;3.30;;;;;;;;;;5096253;28;20427;-83
2021/08/29 02:33:22;;;;;;;11.25;3.50;;;;;;;;;;5077941;28;20422;-84
2021/08/29 02:35:49;;;;;;;9.80;3.10;;;;;;;;;;5096513;28;20119;-83
2021/08/29 02:38:16;;;;;;;5.88;2.90;;;;;;;;;;5095810;28;20036;-83
2021/08/29 02:40:42;;;;;;;7.22;3.10;;;;;;;;;;5096310;28;20035;-83
2021/08/29 02:43:09;;;;;;;9.93;3.53;;;;;;;;;;5111782;28;20084;-85
2021/08/29 02:45:36;;;;;;;8.15;3.63;;;;;;;;;;5078151;28;20047;-83
2021/08/29 02:48:03;;;;;;;7.63;2.92;;;;;;;;;;5094048;28;20051;-85
2021/08/29 02:50:29;;;;;;;9.25;3.67;;;;;;;;;;5110910;28;20058;-83
2021/08/29 02:52:56;;;;;;;9.15;3.10;;;;;;;;;;5077324;28;20047;-85
2021/08/29 02:55:23;;;;;;;9.77;3.13;;;;;;;;;;5092645;28;20216;-83
2021/08/29 02:57:51;;;;;;;12.25;3.65;;;;;;;;;;5077641;28;20120;-83
2021/08/29 03:00:17;;;;;;;11.20;3.42;;;;;;;;;;5093975;28;20051;-85
2021/08/29 03:02:44;;;;;;;11.90;3.17;;;;;;;;;;5094426;28;20050;-84
2021/08/29 03:05:10;;;;;;;8.45;3.20;;;;;;;;;;5092945;28;20040;-84
2021/08/29 03:07:37;;;;;;;10.10;3.85;;;;;;;;;;5094174;28;20072;-83
2021/08/29 03:10:03;;;;;;;6.35;3.42;;;;;;;;;;5093550;28;20047;-85
2021/08/29 03:12:30;;;;;;;8.73;3.35;;;;;;;;;;5093702;28;20093;-84
2021/08/29 03:14:57;;;;;;;9.88;3.72;;;;;;;;;;5094591;28;20035;-83
2021/08/29 03:17:23;;;;;;;8.82;3.40;;;;;;;;;;5112327;28;20054;-83
2021/08/29 03:19:52;;;;;;;9.45;3.25;;;;;;;;;;5112557;28;20039;-86
2021/08/29 03:22:19;;;;;;;9.45;3.53;;;;;;;;;;5094038;28;20399;-85
2021/08/29 03:24:45;;;;;;;7.95;3.33;;;;;;;;;;5077865;28;20040;-85
2021/08/29 03:27:11;;;;;;;9.15;3.00;;;;;;;;;;5093836;28;20487;-85
2021/08/29 03:29:37;;;;;;;8.00;3.38;;;;;;;;;;5094480;28;20052;-83
2021/08/29 03:32:04;;;;;;;8.60;3.22;;;;;;;;;;5094117;28;20044;-85
2021/08/29 03:34:30;;;;;;;9.93;3.38;;;;;;;;;;5077077;28;20491;-84
2021/08/29 03:36:56;;;;;;;8.73;3.28;;;;;;;;;;5094304;28;20043;-84
2021/08/29 03:39:25;;;;;;;9.57;3.50;;;;;;;;;;5076763;28;20111;-84
2021/08/29 03:41:55;;;;;;;7.22;3.05;;;;;;;;;;5077881;28;20054;-83
2021/08/29 03:44:21;;;;;;;10.55;3.63;;;;;;;;;;5094273;28;20130;-84
2021/08/29 03:46:47;;;;;;;10.85;3.60;;;;;;;;;;5094794;28;20160;-84
2021/08/29 03:49:13;;;;;;;9.48;3.55;;;;;;;;;;5093387;28;20407;-84
2021/08/29 03:51:41;;;;;;;9.73;3.60;;;;;;;;;;5094416;28;20047;-84
2021/08/29 03:54:07;;;;;;;6.88;3.40;;;;;;;;;;5092929;28;20100;-90
2021/08/29 03:56:34;;;;;;;8.50;3.55;;;;;;;;;;5094343;28;20502;-84
2021/08/29 03:59:01;;;;;;;12.48;3.85;;;;;;;;;;5094278;28;20048;-84
2021/08/29 04:01:27;;;;;;;14.18;3.92;;;;;;;;;;5111565;28;20035;-85
2021/08/29 04:03:53;;;;;;;16.45;4.38;;;;;;;;;;5094663;28;20100;-84
2021/08/29 04:06:20;;;;;;;11.32;3.70;;;;;;;;;;5110746;28;20069;-84
2021/08/29 04:08:48;;;;;;;10.07;3.38;;;;;;;;;;5094231;28;20044;-84
2021/08/29 04:11:15;;;;;;;13.40;3.78;;;;;;;;;;5093965;28;20097;-84
2021/08/29 04:13:41;;;;;;;13.20;3.40;;;;;;;;;;5112780;28;20043;-83
2021/08/29 04:16:07;;;;;;;11.40;3.78;;;;;;;;;;5076786;28;20123;-90
2021/08/29 04:18:40;;;;;;;9.35;3.83;;;;;;;;;;5093795;28;20051;-84
2021/08/29 04:21:07;;;;;;;11.95;3.20;;;;;;;;;;5093906;28;20066;-90
2021/08/29 04:23:33;;;;;;;7.82;3.17;;;;;;;;;;5094022;28;20138;-84
2021/08/29 04:25:59;;;;;;;8.07;3.17;;;;;;;;;;5094230;28;20050;-83
2021/08/29 04:28:26;;;;;;;10.73;3.83;;;;;;;;;;5093037;28;20809;-83
2021/08/29 04:30:52;;;;;;;9.07;3.30;;;;;;;;;;5093917;28;20039;-83
2021/08/29 04:33:19;;;;;;;11.52;3.60;;;;;;;;;;5111671;28;20077;-84
2021/08/29 04:35:45;;;;;;;12.75;3.80;;;;;;;;;;5093486;28;20047;-86
2021/08/29 04:38:11;;;;;;;9.65;3.45;;;;;;;;;;5111549;28;20114;-85
2021/08/29 04:40:37;;;;;;;12.52;3.42;;;;;;;;;;5094143;28;20035;-85
2021/08/29 04:43:03;;;;;;;8.90;3.88;;;;;;;;;;5093989;28;20490;-84
2021/08/29 04:45:29;;;;;;;11.45;3.45;;;;;;;;;;5094111;28;20204;-84
2021/08/29 04:47:55;;;;;;;12.02;3.45;;;;;;;;;;5094026;28;20035;-84
2021/08/29 04:50:21;;;;;;;14.60;3.67;;;;;;;;;;5093280;28;20059;-84
2021/08/29 04:52:48;;;;;;;12.38;3.88;;;;;;;;;;5094068;28;20050;-84
2021/08/29 04:55:14;;;;;;;10.68;3.15;;;;;;;;;;5111806;28;20047;-84
2021/08/29 04:57:40;;;;;;;8.43;3.33;;;;;;;;;;5093937;28;20069;-83
2021/08/29 05:00:06;;;;;;;11.27;3.90;;;;;;;;;;5093537;28;20395;-84
2021/08/29 05:02:32;;;;;;;11.38;3.70;;;;;;;;;;5093687;28;20126;-84
2021/08/29 05:04:58;;;;;;;13.43;3.63;;;;;;;;;;5093062;28;20084;-84
2021/08/29 05:07:24;;;;;;;12.00;3.50;;;;;;;;;;5076948;28;20059;-83
2021/08/29 05:09:50;;;;;;;11.02;3.45;;;;;;;;;;5112040;28;20043;-83
2021/08/29 05:12:17;;;;;;;9.80;3.03;;;;;;;;;;5076167;28;20085;-84
2021/08/29 05:14:43;;;;;;;10.30;2.90;;;;;;;;;;5093917;28;20050;-84
2021/08/29 05:17:09;;;;;;;11.93;3.10;;;;;;;;;;5093383;28;20035;-88
2021/08/29 05:19:35;;;;;;;8.25;2.88;;;;;;;;;;5093893;28;20051;-87
2021/08/29 05:22:01;;;;;;;11.27;2.90;;;;;;;;;;5093471;28;20466;-84
2021/08/29 05:24:27;;;;;;;12.98;3.22;;;;;;;;;;5076466;28;20048;-86
2021/08/29 05:26:53;;;;;;;10.25;3.20;;;;;;;;;;5094042;28;20047;-85
2021/08/29 05:29:19;;;;;;;9.38;2.85;;;;;;;;;;5093134;28;20157;-84
2021/08/29 05:31:45;;;;;;;9.50;2.33;;;;;;;;;;5093877;28;20050;-84
2021/08/29 05:34:11;;;;;;;8.60;2.70;;;;;;;;;;5076618;28;20134;-86
2021/08/29 05:36:37;;;;;;;11.07;3.05;;;;;;;;;;5093688;28;20059;-86
2021/08/29 05:39:03;;;;;;;7.45;2.63;;;;;;;;;;5091792;28;20134;-85
2021/08/29 05:41:29;;;;;;;12.05;3.28;;;;;;;;;;5093015;28;20154;-85
2021/08/29 05:43:56;;;;;;;8.05;2.35;;;;;;;;;;5093614;28;20067;-88
2021/08/29 05:46:22;;;;;;;9.25;2.95;;;;;;;;;;5093922;28;20051;-84
2021/08/29 05:48:50;;;;;;;10.55;2.70;;;;;;;;;;5097279;28;20399;-85
2021/08/29 05:51:16;;;;;;;7.88;2.60;;;;;;;;;;5096718;28;21602;-84
2021/08/29 05:53:42;;;;;;;9.68;2.58;;;;;;;;;;5097256;28;20067;-84
2021/08/29 05:56:08;;;;;;;11.98;3.42;;;;;;;;;;5097575;28;20047;-91
2021/08/29 05:58:34;;;;;;;10.25;2.63;;;;;;;;;;5096865;28;20062;-86
2021/08/29 06:01:01;;;;;;;11.38;2.80;;;;;;;;;;5080531;28;20043;-87
2021/08/29 06:03:28;;;;;;;11.57;2.80;;;;;;;;;;5079715;28;20941;-86
2021/08/29 06:05:54;;;;;;;11.68;2.95;;;;;;;;;;5080072;28;20046;-85
2021/08/29 06:08:20;;;;;;;12.05;2.67;;;;;;;;;;5096553;28;20866;-85
2021/08/29 06:10:46;;;;;;;13.23;2.92;;;;;;;;;;5115198;28;20047;-85
2021/08/29 06:13:12;;;;;;;12.50;3.90;;;;;;;;;;5079601;28;20050;-90
2021/08/29 06:15:39;;;;;;;13.80;2.55;;;;;;;;;;5096714;28;20056;-85
2021/08/29 06:18:05;;;;;;;20.30;3.95;;;;;;;;;;5080043;28;20062;-85
2021/08/29 06:20:31;;;;;;;11.63;2.78;;;;;;;;;;5076626;28;20061;-86
2021/08/29 06:22:57;;;;;;;12.00;2.83;;;;;;;;;;5096721;28;20428;-84
2021/08/29 06:25:23;;;;;;;13.57;3.17;;;;;;;;;;5079709;28;20052;-85
2021/08/29 06:27:49;;;;;;;13.23;2.85;;;;;;;;;;5096564;28;20197;-85
2021/08/29 06:30:15;;;;;;;13.95;3.40;;;;;;;;;;5079224;28;20047;-84
2021/08/29 06:32:41;;;;;;;12.63;3.10;;;;;;;;;;5079796;28;20043;-87
2021/08/29 06:35:08;;;;;;;12.88;3.63;;;;;;;;;;5114657;28;20047;-84
2021/08/29 06:37:34;;;;;;;12.10;3.00;;;;;;;;;;5079228;28;20044;-84
2021/08/29 06:40:00;;;;;;;11.82;3.28;;;;;;;;;;5096714;28;20050;-86
2021/08/29 06:42:26;;;;;;;12.27;2.63;;;;;;;;;;5094830;28;20391;-86
2021/08/29 06:44:52;;;;;;;9.52;3.00;;;;;;;;;;5114513;28;20040;-85
2021/08/29 06:47:18;;;;;;;14.32;3.58;;;;;;;;;;5095545;28;20054;-85
2021/08/29 06:49:44;;;;;;;16.55;4.07;;;;;;;;;;5078765;28;20061;-85
2021/08/29 06:52:10;;;;;;;15.52;3.63;;;;;;;;;;5079236;28;20047;-91
2021/08/29 06:54:36;;;;;;;10.00;3.08;;;;;;;;;;5095936;28;20039;-85
2021/08/29 06:57:02;;;;;;;12.80;3.83;;;;;;;;;;5113548;28;20482;-85
2021/08/29 06:59:28;;;;;;;18.58;3.83;;;;;;;;;;5094582;28;20539;-84
2021/08/29 07:01:55;;;;;;;10.85;3.60;;;;;;;;;;5096276;28;20043;-85
2021/08/29 07:04:21;;;;;;;14.88;3.60;;;;;;;;;;5075461;28;20062;-85
2021/08/29 07:06:47;;;;;;;13.30;3.88;;;;;;;;;;5095166;28;20035;-84
2021/08/29 07:09:13;;;;;;;15.63;4.18;;;;;;;;;;5113497;28;20043;-88
2021/08/29 07:11:39;;;;;;;18.67;4.18;;;;;;;;;;5095606;28;20036;-84
2021/08/29 07:14:05;;;;;;;15.32;3.97;;;;;;;;;;5078386;28;20184;-85
2021/08/29 07:16:31;;;;;;;17.05;3.40;;;;;;;;;;5094758;28;20043;-84
2021/08/29 07:18:57;;;;;;;13.45;3.35;;;;;;;;;;5078750;28;20044;-84
2021/08/29 07:21:23;;;;;;;12.57;3.95;;;;;;;;;;5095452;28;20415;-85
2021/08/29 07:23:50;;;;;;;17.98;3.97;;;;;;;;;;5095208;28;20050;-87
2021/08/29 07:26:16;;;;;;;14.77;4.07;;;;;;;;;;5078328;28;20442;-85
2021/08/29 07:28:43;;;;;;;14.77;3.90;;;;;;;;;;5094946;28;20045;-84
2021/08/29 07:31:09;;;;;;;14.23;3.75;;;;;;;;;;5078202;28;20126;-86
2021/08/29 07:33:35;;;;;;;13.63;4.20;;;;;;;;;;5095271;28;20044;-85
2021/08/29 07:36:02;;;;;;;12.63;4.55;;;;;;;;;;5095072;28;20114;-85
2021/08/29 07:38:28;;;;;;;19.85;5.00;;;;;;;;;;5078106;28;20422;-88
2021/08/29 07:40:54;;;;;;;15.07;3.85;;;;;;;;;;5078098;28;20043;-88
2021/08/29 07:43:20;;;;;;;14.75;4.50;;;;;;;;;;5094845;28;20075;-88
2021/08/29 07:45:46;;;;;;;13.93;4.38;;;;;;;;;;5078168;28;20039;-87
2021/08/29 07:48:12;;;;;;;17.17;4.72;;;;;;;;;;5094081;28;20058;-93
2021/08/29 07:50:38;;;;;;;13.30;4.00;;;;;;;;;;5077778;28;20055;-89
2021/08/29 07:53:04;;;;;;;15.70;4.50;;;;;;;;;;5077695;28;20458;-87
2021/08/29 07:55:30;;;;;;;13.20;4.07;;;;;;;;;;5094313;28;20047;-89
2021/08/29 07:57:56;;;;;;;17.52;4.50;;;;;;;;;;5077673;28;20058;-88
2021/08/29 08:00:23;;;;;;;12.45;4.47;;;;;;;;;;5077635;28;20048;-88
2021/08/29 08:02:49;;;;;;;18.35;4.70;;;;;;;;;;5094433;28;20126;-88
2021/08/29 08:05:15;;;;;;;17.92;4.10;;;;;;;;;;5093409;28;20475;-90
2021/08/29 08:07:41;;;;;;;13.57;4.47;;;;;;;;;;5094732;28;20185;-88
2021/08/29 08:10:07;;;;;;;10.98;3.45;;;;;;;;;;5077148;28;20040;-93
2021/08/29 08:12:33;;;;;;;14.02;4.18;;;;;;;;;;5096193;28;20043;-91
2021/08/29 08:15:02;;;;;;;13.48;4.15;;;;;;;;;;5079218;28;20490;-92
2021/08/29 08:17:29;;;;;;;15.15;4.50;;;;;;;;;;5095976;28;20490;-90
2021/08/29 08:19:55;;;;;;;14.32;4.78;;;;;;;;;;5078413;28;20043;-85
2021/08/29 08:22:21;;;;;;;13.88;4.70;;;;;;;;;;5093033;28;20043;-84
2021/08/29 08:24:48;;;;;;;12.73;5.40;;;;;;;;;;5075550;28;20048;-83
2021/08/29 08:27:14;;;;;;;12.70;5.15;;;;;;;;;;5092203;28;20044;-89
2021/08/29 08:29:40;;;;;;;13.68;5.40;;;;;;;;;;5110559;28;20082;-85
2021/08/29 08:32:06;;;;;;;13.82;5.63;;;;;;;;;;5093122;28;20105;-86
2021/08/29 08:34:32;;;;;;;10.90;5.15;;;;;;;;;;5092103;28;20036;-86
2021/08/29 08:36:59;;;;;;;13.35;5.85;;;;;;;;;;5076512;28;20044;-86
2021/08/29 08:39:25;;;;;;;13.27;5.93;;;;;;;;;;5075183;28;20043;-86
2021/08/29 08:41:51;;;;;;;13.52;6.38;;;;;;;;;;5109757;28;20127;-87
2021/08/29 08:44:17;;;;;;;14.25;5.90;;;;;;;;;;5092261;28;20047;-86
2021/08/29 08:46:45;;;;;;;14.75;6.85;;;;;;;;;;5076438;28;20163;-85
2021/08/29 08:49:11;;;;;;;8.57;5.03;;;;;;;;;;5075264;28;20052;-88
2021/08/29 08:51:38;;;;;;;13.20;5.25;;;;;;;;;;5092675;28;20051;-86
2021/08/29 08:54:05;;;;;;;12.50;5.60;;;;;;;;;;5075716;28;20104;-86
2021/08/29 08:56:32;;;;;;;14.57;5.30;;;;;;;;;;5075577;28;20205;-85
2021/08/29 08:58:59;;;;;;;12.40;5.18;;;;;;;;;;5092290;28;20047;-85
2021/08/29 09:01:25;;;;;;;14.20;5.78;;;;;;;;;;5089090;28;20036;-87
2021/08/29 09:03:51;;;;;;;13.13;5.93;;;;;;;;;;5092191;28;20044;-85
2021/08/29 09:06:18;;;;;;;11.43;5.20;;;;;;;;;;5090590;28;20047;-86
2021/08/29 09:08:44;;;;;;;15.05;5.38;;;;;;;;;;5092044;28;20061;-86
2021/08/29 09:11:10;;;;;;;11.77;5.45;;;;;;;;;;5092609;28;20044;-85
2021/08/29 09:13:49;;;;;;;10.50;5.32;;;;;;;;;;5091867;28;20124;-85
2021/08/29 09:16:15;;;;;;;11.23;5.10;;;;;;;;;;5099007;28;20059;-88
2021/08/29 09:18:51;;;;;;;8.95;4.97;;;;;;;;;;5092157;28;20043;-85
2021/08/29 09:21:21;;;;;;;12.02;5.65;;;;;;;;;;5095837;28;20093;-85
2021/08/29 09:23:47;;;;;;;8.88;4.78;;;;;;;;;;5081596;28;20058;-85
2021/08/29 09:26:15;;;;;;;12.93;4.63;;;;;;;;;;5097917;28;20047;-89
2021/08/29 09:28:41;;;;;;;12.10;4.68;;;;;;;;;;5097828;28;20564;-84
2021/08/29 09:31:07;;;;;;;10.05;3.70;;;;;;;;;;5098190;28;20124;-86
2021/08/29 09:33:33;;;;;;;7.30;3.63;;;;;;;;;;5097588;28;20087;-84
2021/08/29 09:36:00;;;;;;;8.00;3.35;;;;;;;;;;5098109;28;20051;-85
2021/08/29 09:38:26;;;;;;;7.18;3.60;;;;;;;;;;5081966;28;20044;-85
2021/08/29 09:40:52;;;;;;;7.40;3.25;;;;;;;;;;5108539;27;20470;-83
2021/08/29 09:43:34;;;;;;;7.47;3.22;;;;;;;;;;5112364;27;20039;-84
2021/08/29 09:46:06;;;;;;;9.88;3.40;;;;;;;;;;5085175;27;20061;-87
2021/08/29 09:48:32;;;;;;;9.07;3.20;;;;;;;;;;5102725;27;20047;-86
2021/08/29 09:50:59;;;;;;;8.10;3.30;;;;;;;;;;5105232;27;20036;-83
2021/08/29 09:53:25;;;;;;;5.78;3.50;;;;;;;;;;5107625;27;20051;-87
2021/08/29 09:55:51;;;;;;;5.43;3.00;;;;;;;;;;5105007;27;20090;-83
2021/08/29 09:58:25;;;;;;;6.45;3.15;;;;;;;;;;5083541;27;20031;-86
2021/08/29 10:01:11;;;;;;;7.60;3.33;;;;;;;;;;5111836;27;20035;-84
2021/08/29 10:03:38;;;;;;;5.97;3.63;;;;;;;;;;5124997;27;20063;-83
2021/08/29 10:06:20;;;;;;;6.97;3.05;;;;;;;;;;5082750;28;20040;-83
2021/08/29 10:08:47;;;;;;;6.90;3.15;;;;;;;;;;5079740;28;20065;-86
2021/08/29 10:11:14;;;;;;;6.78;3.47;;;;;;;;;;5095902;28;20491;-91
2021/08/29 10:13:40;;;;;;;5.75;2.88;;;;;;;;;;5095706;28;20039;-87
2021/08/29 10:16:07;;;;;;;6.78;3.35;;;;;;;;;;5096210;28;20036;-87
2021/08/29 10:18:37;;;;;;;4.68;2.92;;;;;;;;;;5095329;28;20043;-86
2021/08/29 10:21:04;;;;;;;5.40;2.92;;;;;;;;;;5079032;28;20487;-85
2021/08/29 10:23:30;;;;;;;5.68;3.25;;;;;;;;;;5095634;28;20088;-86
2021/08/29 10:25:57;;;;;;;7.03;2.95;;;;;;;;;;5078999;28;20051;-87
2021/08/29 10:28:27;;;;;;;4.78;2.92;;;;;;;;;;5113395;28;20047;-86
2021/08/29 10:30:55;;;;;;;6.20;2.88;;;;;;;;;;5095427;28;20092;-85
2021/08/29 10:33:22;;;;;;;5.78;3.03;;;;;;;;;;5094746;28;20123;-85
2021/08/29 10:35:50;;;;;;;6.97;3.17;;;;;;;;;;5095584;28;20131;-84
2021/08/29 10:38:16;;;;;;;6.57;3.00;;;;;;;;;;5094314;28;20047;-87
2021/08/29 10:40:43;;;;;;;6.57;3.63;;;;;;;;;;5095598;28;20043;-85
2021/08/29 10:43:09;;;;;;;6.00;3.22;;;;;;;;;;5080080;28;20043;-85
2021/08/29 10:45:36;;;;;;;6.85;3.42;;;;;;;;;;5079072;28;20188;-85
2021/08/29 10:48:02;;;;;;;5.63;3.17;;;;;;;;;;5096760;28;20046;-85
2021/08/29 10:50:28;;;;;;;7.82;3.50;;;;;;;;;;5091889;28;20048;-85
2021/08/29 10:52:54;;;;;;;5.78;3.40;;;;;;;;;;5076184;28;20052;-84
2021/08/29 10:55:20;;;;;;;6.80;3.50;;;;;;;;;;5069143;28;20067;-85
2021/08/29 10:57:49;;;;;;;6.18;3.10;;;;;;;;;;5063698;28;20048;-84
2021/08/29 11:00:18;;;;;;;5.30;3.13;;;;;;;;;;5072548;28;20397;-90
2021/08/29 11:02:45;;;;;;;5.93;3.47;;;;;;;;;;5075571;28;20048;-87
2021/08/29 11:05:35;;;;;;;6.57;2.90;;;;;;;;;;5070095;28;20037;-85
2021/08/29 11:08:20;;;;;;;8.00;3.22;;;;;;;;;;5060970;28;20048;-89
2021/08/29 11:10:47;;;;;;;6.20;3.33;;;;;;;;;;5057591;28;20044;-89
2021/08/29 11:13:29;;;;;;;6.75;3.33;;;;;;;;;;5074469;28;20503;-88
2021/08/29 11:16:13;;;;;;;7.65;3.70;;;;;;;;;;5057312;28;20055;-88
2021/08/29 11:18:58;;;;;;;7.15;3.67;;;;;;;;;;5057435;28;20040;-88
2021/08/29 11:21:36;;;;;;;8.10;3.97;;;;;;;;;;5051816;28;20080;-88
2021/08/29 11:24:03;;;;;;;7.38;4.00;;;;;;;;;;5053503;28;20109;-88
2021/08/29 11:26:30;;;;;;;7.65;4.03;;;;;;;;;;5093209;28;20112;-86
2021/08/29 11:28:56;;;;;;;7.07;3.97;;;;;;;;;;5064259;28;20040;-86
2021/08/29 11:31:41;;;;;;;8.57;3.90;;;;;;;;;;5074040;28;20048;-87
2021/08/29 11:34:14;;;;;;;8.30;3.72;;;;;;;;;;5065483;28;20041;-87
2021/08/29 11:37:04;;;;;;;8.93;4.30;;;;;;;;;;5053987;28;20068;-87
2021/08/29 11:39:33;;;;;;;9.98;4.30;;;;;;;;;;5054335;28;20385;-87
2021/08/29 11:42:19;;;;;;;7.35;4.38;;;;;;;;;;5056002;28;20045;-87
2021/08/29 11:44:46;;;;;;;8.73;4.80;;;;;;;;;;5061426;28;20071;-86
2021/08/29 11:47:12;;;;;;;7.68;4.57;;;;;;;;;;5069975;28;20487;-87
2021/08/29 11:49:39;;;;;;;9.13;4.80;;;;;;;;;;5059620;28;20807;-85
2021/08/29 11:52:06;;;;;;;5.72;4.20;;;;;;;;;;5046608;28;20186;-87
2021/08/29 11:54:32;;;;;;;7.07;4.28;;;;;;;;;;5072007;28;20060;-86
2021/08/29 11:56:58;;;;;;;7.28;4.57;;;;;;;;;;5071967;28;20045;-84
2021/08/29 11:59:31;;;;;;;8.32;4.53;;;;;;;;;;5055486;28;20123;-86
2021/08/29 12:01:58;;;;;;;4.97;3.65;;;;;;;;;;5072910;28;20049;-83
2021/08/29 12:04:25;;;;;;;6.32;4.32;;;;;;;;;;5054413;28;20053;-90
2021/08/29 12:07:04;;;;;;;7.97;4.50;;;;;;;;;;5054663;28;20048;-83
2021/08/29 12:09:39;;;;;;;9.52;4.82;;;;;;;;;;5054727;28;20037;-86
2021/08/29 12:12:06;;;;;;;7.50;4.60;;;;;;;;;;5071766;28;20056;-83
2021/08/29 12:14:32;;;;;;;5.43;3.90;;;;;;;;;;5054554;28;20048;-85
2021/08/29 12:17:00;;;;;;;7.65;4.57;;;;;;;;;;5055178;28;20443;-83
2021/08/29 12:19:26;;;;;;;9.27;5.00;;;;;;;;;;5071015;28;20113;-86
2021/08/29 12:21:53;;;;;;;9.68;4.90;;;;;;;;;;5071432;28;20103;-84
2021/08/29 12:24:24;;;;;;;8.23;4.80;;;;;;;;;;5054265;28;20477;-90
2021/08/29 12:27:10;;;;;;;8.75;4.93;;;;;;;;;;5056936;28;20396;-85
2021/08/29 12:30:03;;;;;;;8.38;5.25;;;;;;;;;;5051154;28;20078;-84
2021/08/29 12:32:34;;;;;;;6.85;4.38;;;;;;;;;;5066789;28;20119;-84
2021/08/29 12:35:08;;;;;;;10.45;5.20;;;;;;;;;;5054425;28;20048;-86
2021/08/29 12:37:35;;;;;;;8.25;5.03;;;;;;;;;;5053945;28;20480;-84
2021/08/29 12:40:03;;;;;;;7.25;5.03;;;;;;;;;;5071127;28;20504;-84
2021/08/29 12:42:31;;;;;;;9.55;5.20;;;;;;;;;;5070649;28;20041;-85
2021/08/29 12:44:58;;;;;;;7.47;4.88;;;;;;;;;;5054597;28;20044;-85
2021/08/29 12:47:25;;;;;;;8.25;4.45;;;;;;;;;;5038261;28;20048;-84
2021/08/29 12:49:51;;;;;;;11.05;5.28;;;;;;;;;;5050841;28;20405;-84
2021/08/29 12:52:22;;;;;;;9.02;5.50;;;;;;;;;;5034431;28;20056;-89
2021/08/29 12:54:49;;;;;;;10.27;5.40;;;;;;;;;;5050847;28;20493;-84
2021/08/29 12:57:15;;;;;;;9.20;5.10;;;;;;;;;;5036249;28;20047;-84
2021/08/29 12:59:42;;;;;;;8.95;5.47;;;;;;;;;;5070562;28;20044;-84
2021/08/29 13:02:16;;;;;;;11.48;5.55;;;;;;;;;;5070924;28;20048;-84
2021/08/29 13:04:45;;;;;;;10.67;5.43;;;;;;;;;;5053098;28;20131;-85
2021/08/29 13:07:12;;;;;;;11.57;5.45;;;;;;;;;;5054253;28;20355;-86
2021/08/29 13:09:38;;;;;;;12.20;6.40;;;;;;;;;;5070323;28;20113;-85
2021/08/29 13:12:08;;;;;;;11.25;5.80;;;;;;;;;;5071243;28;20052;-86
2021/08/29 13:14:37;;;;;;;9.10;5.57;;;;;;;;;;5071036;28;20044;-87
2021/08/29 13:17:17;;;;;;;9.73;6.10;;;;;;;;;;5071106;28;20106;-86
2021/08/29 13:19:43;;;;;;;10.15;5.88;;;;;;;;;;5053505;28;20135;-85
2021/08/29 13:22:10;;;;;;;9.23;5.95;;;;;;;;;;5053986;28;20040;-85
2021/08/29 13:24:37;;;;;;;11.60;6.28;;;;;;;;;;5053368;28;20056;-84
2021/08/29 13:27:17;;;;;;;10.48;5.80;;;;;;;;;;5070497;28;20199;-85
2021/08/29 13:29:43;;;;;;;9.95;5.85;;;;;;;;;;5070011;28;20052;-85
2021/08/29 13:32:10;;;;;;;11.05;6.40;;;;;;;;;;5070617;28;20063;-84
2021/08/29 13:34:36;;;;;;;11.55;6.30;;;;;;;;;;5069373;28;20044;-84
2021/08/29 13:37:03;;;;;;;9.93;6.18;;;;;;;;;;5070456;28;20124;-84
2021/08/29 13:39:29;;;;;;;9.57;6.22;;;;;;;;;;5070119;28;20139;-84
2021/08/29 13:42:14;;;;;;;11.68;6.85;;;;;;;;;;5068883;28;20488;-84
2021/08/29 13:44:43;;;;;;;9.83;6.50;;;;;;;;;;5083140;28;20066;-85
2021/08/29 13:47:10;;;;;;;10.43;6.72;;;;;;;;;;5033297;28;20288;-86
2021/08/29 13:49:36;;;;;;;12.18;6.57;;;;;;;;;;5032055;28;20057;-86
2021/08/29 13:52:02;;;;;;;12.95;7.35;;;;;;;;;;5083705;28;20052;-85
2021/08/29 13:54:28;;;;;;;10.85;6.82;;;;;;;;;;5083295;28;20492;-86
2021/08/29 13:56:54;;;;;;;11.82;6.85;;;;;;;;;;5050008;28;20081;-87
2021/08/29 13:59:20;;;;;;;13.85;7.13;;;;;;;;;;5064898;28;20406;-88
2021/08/29 14:01:46;;;;;;;10.07;6.97;;;;;;;;;;5049922;28;20102;-86
2021/08/29 14:04:13;;;;;;;14.38;7.18;;;;;;;;;;5049866;28;20052;-85
2021/08/29 14:06:39;;;;;;;14.30;6.72;;;;;;;;;;5065263;28;20243;-85
2021/08/29 14:09:05;;;;;;;12.65;6.60;;;;;;;;;;5072803;28;20036;-84
2021/08/29 14:11:31;;;;;;;9.10;6.50;;;;;;;;;;5072712;28;20044;-85
2021/08/29 14:13:57;;;;;;;10.02;6.40;;;;;;;;;;5073002;28;20044;-83
2021/08/29 14:16:24;;;;;;;9.48;6.20;;;;;;;;;;5055764;28;20055;-85
2021/08/29 14:18:50;;;;;;;8.20;6.13;;;;;;;;;;5072988;28;20037;-84
2021/08/29 14:21:19;;;;;;;8.95;5.80;;;;;;;;;;5056508;28;20091;-84
2021/08/29 14:23:45;;;;;;;10.35;6.07;;;;;;;;;;5052678;28;20553;-84
2021/08/29 14:26:11;;;;;;;8.18;5.40;;;;;;;;;;5073254;28;20190;-84
2021/08/29 14:28:38;;;;;;;11.32;6.18;;;;;;;;;;5071952;28;20047;-84
2021/08/29 14:31:04;;;;;;;9.48;5.90;;;;;;;;;;5068410;28;20049;-84
2021/08/29 14:33:30;;;;;;;13.25;6.60;;;;;;;;;;5064271;28;20132;-84
2021/08/29 14:35:56;;;;;;;10.98;6.80;;;;;;;;;;5072477;28;20041;-84
2021/08/29 14:38:22;;;;;;;12.00;6.38;;;;;;;;;;5070722;28;20095;-87